Terminal Aerodrome Forecast
Issued by NWS Houston/Galveston, TX

Home | Current Version | Previous Version | Text Only | Print | Product List | Glossary On
Versions: 1 2 3 4 5 6 7 8 9 10 11 12 13 14 15 16 17 18 19 20 21 22 23 24 25 26 27 28 29
000
FTUS44 KHGX 221829 AAA
TAFCLL
TAF AMD
KCLL 221829Z 2218/2318 31006KT P6SM BKN019 OVC024
      TEMPO 2218/2220 SCT026
     FM222030 35010G20KT P6SM SCT025
     FM230200 35007KT P6SM SKC=

USA.gov is the U.S. government's official web portal to all federal, state and local government web resources and services.